Patrick J. Studdert — WDG4262 — position and weather

sailwx.info

Track history (hours):
 
Tides and Currents Weather Stations Pressure Air Temp Water Temp Dewpoint Dewpoint Depression Visibility Wind Speed Wind Dir Waves Ship Positions

Patrick J. Studdert

Owner: SHAMROCK MARINE L.L.C., Kingwood, TX. More information available from US FCC via Universal Licensing System and Coast Guard Vessel Documentation Center.

Last reported at 2017-Nov-20 00:26 UTC. Time now 2017-Nov-22 14:54 UTC.
Position N 29°46' W 095°05'.

Length 100 m; draft 2.9 m.

Type: Towing. MMSI: 367534690.

Date/timePositionNaut miles runAvg speedWind from/ knotsBaromVisibWave heightAir tempDewpointWater temp
2017-Nov-20 00:26N 29°46' W 095°05'4 7.1
2017-Nov-19 23:55N 29°44' W 095°01'3 6.2
2017-Nov-19 23:30N 29°42' W 094°60'4 7.4
2017-Nov-19 23:00N 29°38' W 094°58'2 4.5
2017-Nov-19 22:30N 29°37' W 094°60'2 3.1
2017-Nov-19 22:01N 29°37' W 095°02'0 0.0
2017-Nov-19 21:30N 29°37' W 095°02'0 0.0
2017-Nov-19 21:01N 29°37' W 095°02'0 0.0
2017-Nov-19 20:30N 29°37' W 095°02'0 0.0
2017-Nov-19 20:00N 29°37' W 095°02'0 0.0
2017-Nov-19 19:30N 29°37' W 095°02'0 0.0
2017-Nov-19 19:01N 29°37' W 095°02'0 0.0
2017-Nov-19 18:30N 29°37' W 095°02'0 0.0
2017-Nov-19 18:01N 29°37' W 095°02'0 0.0
2017-Nov-19 17:31N 29°37' W 095°02'0 0.0
2017-Nov-19 17:01N 29°37' W 095°02'0 0.0
2017-Nov-19 16:30N 29°37' W 095°02'0 0.0
2017-Nov-19 16:00N 29°37' W 095°02'0 0.0
2017-Nov-19 15:30N 29°37' W 095°02'0 0.0
2017-Nov-19 15:01N 29°37' W 095°02'0 0.0
2017-Nov-19 14:31N 29°37' W 095°02'0 0.0
2017-Nov-19 14:00N 29°37' W 095°02'0 0.0
2017-Nov-19 13:31N 29°37' W 095°02'0 0.0
2017-Nov-19 13:00N 29°37' W 095°02'0 0.0
2017-Nov-19 12:31N 29°37' W 095°02'0 0.0
2017-Nov-19 12:00N 29°37' W 095°02'0 0.0
2017-Nov-19 11:30N 29°37' W 095°02'0 0.0
2017-Nov-19 11:01N 29°37' W 095°02'0 0.0
2017-Nov-19 10:30N 29°37' W 095°02'0 0.0
2017-Nov-19 10:00N 29°37' W 095°02'0 0.0
2017-Nov-19 09:30N 29°37' W 095°02'0 0.0
2017-Nov-19 09:00N 29°37' W 095°02'0 0.0
2017-Nov-19 08:30N 29°37' W 095°02'0 0.0
2017-Nov-19 08:00N 29°37' W 095°02'0 0.0
2017-Nov-19 07:30N 29°37' W 095°02'0 0.0
2017-Nov-19 07:01N 29°37' W 095°02'0 0.0
2017-Nov-19 06:31N 29°37' W 095°02'0 0.0
2017-Nov-19 06:00N 29°37' W 095°02'0 0.0
2017-Nov-19 05:31N 29°37' W 095°02'0 0.0
2017-Nov-19 05:01N 29°37' W 095°02'0 0.0
2017-Nov-19 04:30N 29°37' W 095°02'0 0.0
2017-Nov-19 04:00N 29°37' W 095°02'0 0.0
2017-Nov-19 03:30N 29°37' W 095°02'0 0.0
2017-Nov-19 03:00N 29°37' W 095°02'0 0.0
2017-Nov-19 02:31N 29°37' W 095°02'0 0.0
2017-Nov-19 02:01N 29°37' W 095°02'0 0.0
2017-Nov-19 01:30N 29°37' W 095°02'0 0.0
2017-Nov-19 01:00N 29°37' W 095°02'0 0.0
2017-Nov-19 00:31N 29°37' W 095°02'0 0.0
2017-Nov-19 00:01N 29°37' W 095°02'0 0.0
2017-Nov-18 23:30N 29°37' W 095°02'0 0.0
2017-Nov-18 23:01N 29°37' W 095°02'0 0.0
2017-Nov-18 22:30N 29°37' W 095°02'2 4.6
2017-Nov-18 22:01N 29°37' W 094°59'2 4.8
2017-Nov-18 21:31N 29°36' W 094°56'3 5.4
2017-Nov-18 21:00N 29°33' W 094°55'3 5.4
2017-Nov-18 20:29N 29°31' W 094°53'68 3.1
2017-Nov-17 22:20N 30°03' W 093°44'2 4.8
2017-Nov-17 22:00N 30°03' W 093°42'3 5.3
2017-Nov-17 21:31N 30°04' W 093°39'3 5.0
2017-Nov-17 21:00N 30°04' W 093°36'2 4.7
2017-Nov-17 20:31N 30°04' W 093°33'2 4.6
2017-Nov-17 20:00N 30°04' W 093°31'2 3.5
2017-Nov-17 19:31N 30°04' W 093°29'2 4.8
2017-Nov-17 19:00N 30°04' W 093°26'2 4.7
2017-Nov-17 18:31N 30°04' W 093°23'2 3.9
2017-Nov-17 18:00N 30°04' W 093°21'2 3.6
2017-Nov-17 17:31N 30°05' W 093°20'3 5.5
2017-Nov-17 17:00N 30°08' W 093°20'0 0.6
2017-Nov-17 16:30N 30°08' W 093°19'0 0.1
2017-Nov-17 16:00N 30°08' W 093°19'0 0.5
2017-Nov-17 15:30N 30°08' W 093°19'0 0.0
2017-Nov-17 15:00N 30°08' W 093°19'0 0.0
2017-Nov-17 14:30N 30°08' W 093°19'0 0.0
2017-Nov-17 14:01N 30°08' W 093°19'0 0.0
2017-Nov-17 13:30N 30°08' W 093°19'0 0.0
2017-Nov-17 13:01N 30°08' W 093°19'0 0.0
2017-Nov-17 12:30N 30°08' W 093°19'0 0.0
2017-Nov-17 12:01N 30°08' W 093°19'0 0.0
2017-Nov-17 11:30N 30°08' W 093°19'0 0.0
2017-Nov-17 11:00N 30°08' W 093°19'0 0.0
2017-Nov-17 10:30N 30°08' W 093°19'0 0.0
2017-Nov-17 10:00N 30°08' W 093°19'0 0.0
2017-Nov-17 09:30N 30°08' W 093°19'0 0.0
2017-Nov-17 09:00N 30°08' W 093°19'0 0.0
2017-Nov-17 08:30N 30°08' W 093°19'0 0.0
2017-Nov-17 08:00N 30°08' W 093°19'0 0.0
2017-Nov-17 07:30N 30°08' W 093°19'0 0.0
2017-Nov-17 07:00N 30°08' W 093°19'0 0.0
2017-Nov-17 06:30N 30°08' W 093°19'0 0.0
2017-Nov-17 06:00N 30°08' W 093°19'0 0.0
2017-Nov-17 05:30N 30°08' W 093°19'0 0.0
2017-Nov-17 05:00N 30°08' W 093°19'0 0.0
2017-Nov-17 04:30N 30°08' W 093°19'0 0.0
2017-Nov-17 04:00N 30°08' W 093°19'0 0.0
2017-Nov-17 03:30N 30°08' W 093°19'0 0.0
2017-Nov-17 03:00N 30°08' W 093°19'0 0.0
2017-Nov-17 02:30N 30°08' W 093°19'0 0.0
2017-Nov-17 02:00N 30°08' W 093°19'0 0.0
2017-Nov-17 01:30N 30°08' W 093°19'0 0.0
2017-Nov-17 01:00N 30°08' W 093°19'0 0.0
2017-Nov-17 00:30N 30°08' W 093°19'0 0.0
2017-Nov-17 00:00N 30°08' W 093°19'0 0.0
2017-Nov-16 23:30N 30°08' W 093°19'0 0.1
2017-Nov-16 23:00N 30°08' W 093°19'0 0.4
2017-Nov-16 22:30N 30°08' W 093°19'2 4.0
2017-Nov-16 22:00N 30°06' W 093°20'2 4.3
2017-Nov-16 21:30N 30°04' W 093°21'0 0.2
2017-Nov-16 21:00N 30°04' W 093°21'0 0.0
2017-Nov-16 20:30N 30°04' W 093°21'0 0.0
2017-Nov-16 20:00N 30°04' W 093°21'0 0.0
2017-Nov-16 19:30N 30°04' W 093°21'0 0.0
2017-Nov-16 19:00N 30°04' W 093°21'0 0.0
2017-Nov-16 18:30N 30°04' W 093°21'0 0.0
2017-Nov-16 18:00N 30°04' W 093°21'0 0.0
2017-Nov-16 17:30N 30°04' W 093°21'0 0.0
2017-Nov-16 17:00N 30°04' W 093°21'0 0.0
2017-Nov-16 16:30N 30°04' W 093°21'0 0.0
2017-Nov-16 16:00N 30°04' W 093°21'0 0.0
2017-Nov-16 15:30N 30°04' W 093°21'0 0.0
2017-Nov-16 15:00N 30°04' W 093°21'0 0.0
2017-Nov-16 14:30N 30°04' W 093°21'0 0.0
2017-Nov-16 14:00N 30°04' W 093°21'0 0.0
2017-Nov-16 13:30N 30°04' W 093°21'0 0.0
2017-Nov-16 13:00N 30°04' W 093°21'0 0.0
2017-Nov-16 12:30N 30°04' W 093°21'0 0.0
2017-Nov-16 12:00N 30°04' W 093°21'0 0.0
2017-Nov-16 11:30N 30°04' W 093°21'0 0.0
2017-Nov-16 11:00N 30°04' W 093°21'0 0.0
2017-Nov-16 10:30N 30°04' W 093°21'0 0.0
2017-Nov-16 10:00N 30°04' W 093°21'0 0.0
2017-Nov-16 09:30N 30°04' W 093°21'0 0.0
2017-Nov-16 09:00N 30°04' W 093°21'0 0.0
2017-Nov-16 08:30N 30°04' W 093°21'0 0.0
2017-Nov-16 08:00N 30°04' W 093°21'0 0.0
2017-Nov-16 07:30N 30°04' W 093°21'0 0.0
2017-Nov-16 07:00N 30°04' W 093°21'0 0.0
2017-Nov-16 06:30N 30°04' W 093°21'0 0.0
2017-Nov-16 06:00N 30°04' W 093°21'0 0.0
2017-Nov-16 05:30N 30°04' W 093°21'0 0.0
2017-Nov-16 05:00N 30°04' W 093°21'0 0.0
2017-Nov-16 04:30N 30°04' W 093°21'0 0.0
2017-Nov-16 04:00N 30°04' W 093°21'0 0.0
2017-Nov-16 03:30N 30°04' W 093°21'0 0.0
2017-Nov-16 03:00N 30°04' W 093°21'0 0.0
2017-Nov-16 02:30N 30°04' W 093°21'0 0.0
2017-Nov-16 02:00N 30°04' W 093°21'0 0.0
2017-Nov-16 01:30N 30°04' W 093°21'0 0.0
2017-Nov-16 01:00N 30°04' W 093°21'0 0.0
2017-Nov-16 00:30N 30°04' W 093°21'0 0.0
2017-Nov-16 00:00N 30°04' W 093°21'0 0.0
2017-Nov-15 23:30N 30°04' W 093°21'0 0.0
2017-Nov-15 23:00N 30°04' W 093°21'0 0.0
2017-Nov-15 22:30N 30°04' W 093°21'0 0.0
2017-Nov-15 22:00N 30°04' W 093°21'0 0.0
2017-Nov-15 21:30N 30°04' W 093°21'0 0.0
2017-Nov-15 21:00N 30°04' W 093°21'0 0.0
2017-Nov-15 20:30N 30°04' W 093°21'0 0.0
2017-Nov-15 20:00N 30°04' W 093°21'0 0.0
2017-Nov-15 19:30N 30°04' W 093°21'0 0.0
2017-Nov-15 19:00N 30°04' W 093°21'0 0.0
2017-Nov-15 18:30N 30°04' W 093°21'0 0.0
2017-Nov-15 18:00N 30°04' W 093°21'0 0.0
2017-Nov-15 17:30N 30°04' W 093°21'7051972.6
2017-Nov-15 17:09N 32°46' W 079°57'7054935.2
2017-Nov-15 17:00N 30°04' W 093°21'705101467.8
2017-Nov-15 17:00N 32°46' W 079°57'1 3.0
2017-Nov-15 16:31N 32°46' W 079°55'706423488.6
2017-Nov-15 16:30N 30°04' W 093°21'7091421.6
2017-Nov-15 16:00N 32°46' W 079°52'709182268.0
2017-Nov-15 16:00N 30°04' W 093°21'0 0.0
2017-Nov-15 15:30N 30°04' W 093°21'0 0.0
2017-Nov-15 15:00N 30°04' W 093°21'0 0.0
2017-Nov-15 14:30N 30°04' W 093°21'0 0.0
2017-Nov-15 14:00N 30°04' W 093°21'0 0.0
2017-Nov-15 13:30N 30°04' W 093°21'0 0.0
2017-Nov-15 13:00N 30°04' W 093°21'0 0.0
2017-Nov-15 12:30N 30°04' W 093°21'0 0.0
2017-Nov-15 12:00N 30°04' W 093°21'0 0.0
2017-Nov-15 11:30N 30°04' W 093°21'0 0.0
2017-Nov-15 11:00N 30°04' W 093°21'0 0.0
2017-Nov-15 10:30N 30°04' W 093°21'0 0.0
2017-Nov-15 10:00N 30°04' W 093°21'0 0.0
2017-Nov-15 09:30N 30°04' W 093°21'0 0.0
2017-Nov-15 09:00N 30°04' W 093°21'0 0.0
2017-Nov-15 08:30N 30°04' W 093°21'0 0.0
2017-Nov-15 08:00N 30°04' W 093°21'0 0.0
2017-Nov-15 07:30N 30°04' W 093°21'0 0.0
2017-Nov-15 07:00N 30°04' W 093°21'0 0.0
2017-Nov-15 06:30N 30°04' W 093°21'0 0.0
2017-Nov-15 06:00N 30°04' W 093°21'0 0.0
2017-Nov-15 05:30N 30°04' W 093°21'0 0.0
2017-Nov-15 05:00N 30°04' W 093°21'1 1.0
2017-Nov-15 04:30N 30°04' W 093°21'1 1.6
2017-Nov-15 04:00N 30°04' W 093°20'0 0.6
2017-Nov-15 03:30N 30°04' W 093°21'0 0.0
2017-Nov-15 03:00N 30°04' W 093°21'0 0.0
2017-Nov-15 02:30N 30°04' W 093°21'0 0.0
2017-Nov-15 02:00N 30°04' W 093°21'0 0.0
2017-Nov-15 01:30N 30°04' W 093°21'0 0.0
2017-Nov-15 01:00N 30°04' W 093°21'0 0.0
2017-Nov-15 00:30N 30°04' W 093°21'0 0.0
2017-Nov-15 00:00N 30°04' W 093°21'0 0.0
2017-Nov-14 23:30N 30°04' W 093°21'0 0.0
2017-Nov-14 23:00N 30°04' W 093°21'0 0.0
2017-Nov-14 22:30N 30°04' W 093°21'7155200.3
2017-Nov-14 22:22N 32°50' W 079°45'7151971.0
2017-Nov-14 22:00N 30°04' W 093°21'71558533.7
2017-Nov-14 22:00N 32°50' W 079°45'7151466.7
2017-Nov-14 21:30N 30°04' W 093°21'0 0.0
2017-Nov-14 21:00N 30°04' W 093°21'0 0.0
2017-Nov-14 20:30N 30°04' W 093°21'0 0.0
2017-Nov-14 20:00N 30°04' W 093°21'0 0.0
2017-Nov-14 19:30N 30°04' W 093°21'0 0.0
2017-Nov-14 19:00N 30°04' W 093°21'0 0.0
2017-Nov-14 18:30N 30°04' W 093°21'0 0.0
2017-Nov-14 18:00N 30°04' W 093°21'0 0.0
2017-Nov-14 17:30N 30°04' W 093°21'1 2.0
2017-Nov-14 17:00N 30°05' W 093°20'0 0.0
2017-Nov-14 16:30N 30°05' W 093°20'0 0.0
2017-Nov-14 16:00N 30°05' W 093°20'0 0.0
2017-Nov-14 15:30N 30°05' W 093°20'0 0.0
2017-Nov-14 15:00N 30°05' W 093°20'0 0.0
2017-Nov-14 14:30N 30°05' W 093°20'0 0.3
2017-Nov-14 13:59N 30°05' W 093°20'1 2.1
2017-Nov-14 13:30N 30°04' W 093°21'1 2.4
2017-Nov-14 13:00N 30°04' W 093°22'3 5.1
2017-Nov-14 12:30N 30°04' W 093°25'97 2.8
2017-Nov-13 02:00N 29°43' W 095°14'0 0.0
2017-Nov-13 01:26N 29°43' W 095°14'0 0.0
2017-Nov-13 00:48N 29°43' W 095°14'0 0.0
2017-Nov-13 00:29N 29°43' W 095°14'0 0.0
2017-Nov-12 23:58N 29°43' W 095°14'0 0.0
2017-Nov-12 23:27N 29°43' W 095°14'0 0.0
2017-Nov-12 22:42N 29°43' W 095°14'0 0.0
2017-Nov-12 22:20N 29°43' W 095°14'0 0.0
2017-Nov-12 21:57N 29°43' W 095°14'0 0.0
2017-Nov-12 21:28N 29°43' W 095°14'0 0.0
2017-Nov-12 20:36N 29°43' W 095°14'0 0.0
2017-Nov-12 20:26N 29°43' W 095°14'0 0.0
2017-Nov-12 19:48N 29°43' W 095°14'0 0.0
2017-Nov-12 19:24N 29°43' W 095°14'0 0.0
2017-Nov-12 18:38N 29°43' W 095°14'0 0.0
2017-Nov-12 18:30N 29°43' W 095°14'0 0.1
2017-Nov-12 18:00N 29°43' W 095°14'0 0.0
2017-Nov-12 17:28N 29°43' W 095°14'0 0.0
2017-Nov-12 17:00N 29°43' W 095°14'0 0.0
2017-Nov-12 16:24N 29°43' W 095°14'0 0.0
2017-Nov-12 15:59N 29°43' W 095°14'0 0.0
2017-Nov-12 15:29N 29°43' W 095°14'2 3.2
2017-Nov-12 15:00N 29°44' W 095°13'2 4.4
2017-Nov-12 14:30N 29°45' W 095°10'2 3.9
2017-Nov-12 14:00N 29°44' W 095°08'0 0.0
2017-Nov-12 13:30N 29°44' W 095°08'0 0.9
2017-Nov-12 12:59N 29°44' W 095°08'2 3.2
2017-Nov-12 12:30N 29°45' W 095°06'2 3.1
2017-Nov-12 11:59N 29°46' W 095°05'2 4.6
2017-Nov-12 11:30N 29°44' W 095°03'2 3.5
2017-Nov-12 11:00N 29°43' W 095°01'2 4.7
2017-Nov-12 10:30N 29°41' W 094°59'3 5.1
2017-Nov-12 10:00N 29°39' W 094°58'2 4.5
2017-Nov-12 09:31N 29°37' W 094°58'3 5.3
2017-Nov-12 09:00N 29°37' W 095°01'0 0.9
2017-Nov-12 08:31N 29°37' W 095°01'0 0.1
2017-Nov-12 08:01N 29°37' W 095°01'0 0.2
2017-Nov-12 07:30N 29°37' W 095°01'0 0.2
2017-Nov-12 07:01N 29°37' W 095°01'0 0.0
2017-Nov-12 06:30N 29°37' W 095°01'0 0.0
2017-Nov-12 06:00N 29°37' W 095°01'0 0.0
2017-Nov-12 05:31N 29°37' W 095°01'0 0.0
2017-Nov-12 05:00N 29°37' W 095°01'0 0.0
2017-Nov-12 04:31N 29°37' W 095°01'0 0.0
2017-Nov-12 04:00N 29°37' W 095°01'0 0.0
2017-Nov-12 03:31N 29°37' W 095°01'0 0.0
2017-Nov-12 03:01N 29°37' W 095°01'0 0.0
2017-Nov-12 02:30N 29°37' W 095°01'0 0.0
2017-Nov-12 02:01N 29°37' W 095°01'0 0.0
2017-Nov-12 01:30N 29°37' W 095°01'0 0.0
2017-Nov-12 01:00N 29°37' W 095°01'0 0.0
2017-Nov-12 00:30N 29°37' W 095°01'0 0.0
2017-Nov-12 00:01N 29°37' W 095°01'0 0.0
2017-Nov-11 23:30N 29°37' W 095°01'0 0.0
2017-Nov-11 23:00N 29°37' W 095°01'0 0.0
2017-Nov-11 22:31N 29°37' W 095°01'0 0.0
2017-Nov-11 22:00N 29°37' W 095°01'0 0.0
2017-Nov-11 21:31N 29°37' W 095°01'0 0.1
2017-Nov-11 21:00N 29°37' W 095°01'0 0.2
2017-Nov-11 20:31N 29°37' W 095°01'0 0.3
2017-Nov-11 20:01N 29°37' W 095°01'0 0.0
2017-Nov-11 19:30N 29°37' W 095°01'0 0.0
2017-Nov-11 19:01N 29°37' W 095°01'0 0.0
2017-Nov-11 18:30N 29°37' W 095°01'0 0.0
2017-Nov-11 18:00N 29°37' W 095°01'0 0.0
2017-Nov-11 17:30N 29°37' W 095°01'0 0.0
2017-Nov-11 17:00N 29°37' W 095°01'0 0.0
2017-Nov-11 16:30N 29°37' W 095°01'0 0.0
2017-Nov-11 16:01N 29°37' W 095°01'0 0.0
2017-Nov-11 15:31N 29°37' W 095°01'0 0.0
2017-Nov-11 15:01N 29°37' W 095°01'0 0.0
2017-Nov-11 14:31N 29°37' W 095°01'0 0.0
2017-Nov-11 14:00N 29°37' W 095°01'9754441.3
2017-Nov-11 13:47N 34°43' W 076°49'9753547.6
2017-Nov-11 13:31N 29°37' W 095°01'9763514421.8
2017-Nov-11 13:31N 34°43' W 076°47'9761932.1
2017-Nov-11 13:00N 29°37' W 095°01'979320340.3
2017-Nov-11 13:00N 34°43' W 076°43'9791990.8
2017-Nov-11 12:31N 29°37' W 095°01'0 0.0
2017-Nov-11 12:00N 29°37' W 095°01'0 0.0
2017-Nov-11 11:30N 29°37' W 095°01'0 0.0
2017-Nov-11 11:00N 29°37' W 095°01'0 0.0
2017-Nov-11 10:31N 29°37' W 095°01'0 0.0
2017-Nov-11 10:00N 29°37' W 095°01'0 0.0
2017-Nov-11 09:30N 29°37' W 095°01'0 0.0
2017-Nov-11 09:01N 29°37' W 095°01'0 0.0
2017-Nov-11 08:31N 29°37' W 095°01'0 0.0
2017-Nov-11 08:00N 29°37' W 095°01'0 0.0
2017-Nov-11 07:30N 29°37' W 095°01'0 0.0
2017-Nov-11 07:00N 29°37' W 095°01'0 0.0
2017-Nov-11 06:30N 29°37' W 095°01'0 0.0
2017-Nov-11 06:00N 29°37' W 095°01'0 0.0
2017-Nov-11 05:30N 29°37' W 095°01'0 0.0
2017-Nov-11 05:00N 29°37' W 095°01'0 0.0
2017-Nov-11 04:30N 29°37' W 095°01'0 0.0
2017-Nov-11 04:00N 29°37' W 095°01'0 0.0
2017-Nov-11 03:30N 29°37' W 095°01'0 0.3
2017-Nov-11 03:00N 29°37' W 095°01'0 0.1
2017-Nov-11 02:30N 29°37' W 095°01'3 5.9
2017-Nov-11 02:00N 29°37' W 094°58'3 6.4
2017-Nov-11 01:30N 29°35' W 094°56'3 6.7
2017-Nov-11 01:00N 29°32' W 094°53'977193.3
2017-Nov-10 19:57N 34°48' W 076°41'0 0.0
2017-Nov-10 19:30N 34°48' W 076°41'0 0.1
2017-Nov-10 18:59N 34°48' W 076°41'2 3.7
2017-Nov-10 18:30N 34°50' W 076°41'  
Track history (hours):
 
Tides and Currents Weather Stations Pressure Air Temp Water Temp Dewpoint Dewpoint Depression Visibility Wind Speed Wind Dir Waves Ship Positions

Patrick J. Studdert

Owner: SHAMROCK MARINE L.L.C., Kingwood, TX. More information available from US FCC via Universal Licensing System and Coast Guard Vessel Documentation Center.

Last reported at 2017-Nov-20 00:26 UTC. Time now 2017-Nov-22 14:54 UTC.
Position N 29°46' W 095°05'.

Length 100 m; draft 2.9 m.

Type: Towing. MMSI: 367534690.

Date/timePositionNaut miles runAvg speedWind from/ knotsBaromVisibWave heightAir tempDewpointWater temp
2017-Nov-20 00:26N 29°46' W 095°05'4 7.1
2017-Nov-19 23:55N 29°44' W 095°01'3 6.2
2017-Nov-19 23:30N 29°42' W 094°60'4 7.4
2017-Nov-19 23:00N 29°38' W 094°58'2 4.5
2017-Nov-19 22:30N 29°37' W 094°60'2 3.1
2017-Nov-19 22:01N 29°37' W 095°02'0 0.0
2017-Nov-19 21:30N 29°37' W 095°02'0 0.0
2017-Nov-19 21:01N 29°37' W 095°02'0 0.0
2017-Nov-19 20:30N 29°37' W 095°02'0 0.0
2017-Nov-19 20:00N 29°37' W 095°02'0 0.0
2017-Nov-19 19:30N 29°37' W 095°02'0 0.0
2017-Nov-19 19:01N 29°37' W 095°02'0 0.0
2017-Nov-19 18:30N 29°37' W 095°02'0 0.0
2017-Nov-19 18:01N 29°37' W 095°02'0 0.0
2017-Nov-19 17:31N 29°37' W 095°02'0 0.0
2017-Nov-19 17:01N 29°37' W 095°02'0 0.0
2017-Nov-19 16:30N 29°37' W 095°02'0 0.0
2017-Nov-19 16:00N 29°37' W 095°02'0 0.0
2017-Nov-19 15:30N 29°37' W 095°02'0 0.0
2017-Nov-19 15:01N 29°37' W 095°02'0 0.0
2017-Nov-19 14:31N 29°37' W 095°02'0 0.0
2017-Nov-19 14:00N 29°37' W 095°02'0 0.0
2017-Nov-19 13:31N 29°37' W 095°02'0 0.0
2017-Nov-19 13:00N 29°37' W 095°02'0 0.0
2017-Nov-19 12:31N 29°37' W 095°02'0 0.0
2017-Nov-19 12:00N 29°37' W 095°02'0 0.0
2017-Nov-19 11:30N 29°37' W 095°02'0 0.0
2017-Nov-19 11:01N 29°37' W 095°02'0 0.0
2017-Nov-19 10:30N 29°37' W 095°02'0 0.0
2017-Nov-19 10:00N 29°37' W 095°02'0 0.0
2017-Nov-19 09:30N 29°37' W 095°02'0 0.0
2017-Nov-19 09:00N 29°37' W 095°02'0 0.0
2017-Nov-19 08:30N 29°37' W 095°02'0 0.0
2017-Nov-19 08:00N 29°37' W 095°02'0 0.0
2017-Nov-19 07:30N 29°37' W 095°02'0 0.0
2017-Nov-19 07:01N 29°37' W 095°02'0 0.0
2017-Nov-19 06:31N 29°37' W 095°02'0 0.0
2017-Nov-19 06:00N 29°37' W 095°02'0 0.0
2017-Nov-19 05:31N 29°37' W 095°02'0 0.0
2017-Nov-19 05:01N 29°37' W 095°02'0 0.0
2017-Nov-19 04:30N 29°37' W 095°02'0 0.0
2017-Nov-19 04:00N 29°37' W 095°02'0 0.0
2017-Nov-19 03:30N 29°37' W 095°02'0 0.0
2017-Nov-19 03:00N 29°37' W 095°02'0 0.0
2017-Nov-19 02:31N 29°37' W 095°02'0 0.0
2017-Nov-19 02:01N 29°37' W 095°02'0 0.0
2017-Nov-19 01:30N 29°37' W 095°02'0 0.0
2017-Nov-19 01:00N 29°37' W 095°02'0 0.0
2017-Nov-19 00:31N 29°37' W 095°02'0 0.0
2017-Nov-19 00:01N 29°37' W 095°02'0 0.0
2017-Nov-18 23:30N 29°37' W 095°02'0 0.0
2017-Nov-18 23:01N 29°37' W 095°02'0 0.0
2017-Nov-18 22:30N 29°37' W 095°02'2 4.6
2017-Nov-18 22:01N 29°37' W 094°59'2 4.8
2017-Nov-18 21:31N 29°36' W 094°56'3 5.4
2017-Nov-18 21:00N 29°33' W 094°55'3 5.4
2017-Nov-18 20:29N 29°31' W 094°53'68 3.1
2017-Nov-17 22:20N 30°03' W 093°44'2 4.8
2017-Nov-17 22:00N 30°03' W 093°42'3 5.3
2017-Nov-17 21:31N 30°04' W 093°39'3 5.0
2017-Nov-17 21:00N 30°04' W 093°36'2 4.7
2017-Nov-17 20:31N 30°04' W 093°33'2 4.6
2017-Nov-17 20:00N 30°04' W 093°31'2 3.5
2017-Nov-17 19:31N 30°04' W 093°29'2 4.8
2017-Nov-17 19:00N 30°04' W 093°26'2 4.7
2017-Nov-17 18:31N 30°04' W 093°23'2 3.9
2017-Nov-17 18:00N 30°04' W 093°21'2 3.6
2017-Nov-17 17:31N 30°05' W 093°20'3 5.5
2017-Nov-17 17:00N 30°08' W 093°20'0 0.6
2017-Nov-17 16:30N 30°08' W 093°19'0 0.1
2017-Nov-17 16:00N 30°08' W 093°19'0 0.5
2017-Nov-17 15:30N 30°08' W 093°19'0 0.0
2017-Nov-17 15:00N 30°08' W 093°19'0 0.0
2017-Nov-17 14:30N 30°08' W 093°19'0 0.0
2017-Nov-17 14:01N 30°08' W 093°19'0 0.0
2017-Nov-17 13:30N 30°08' W 093°19'0 0.0
2017-Nov-17 13:01N 30°08' W 093°19'0 0.0
2017-Nov-17 12:30N 30°08' W 093°19'0 0.0
2017-Nov-17 12:01N 30°08' W 093°19'0 0.0
2017-Nov-17 11:30N 30°08' W 093°19'0 0.0
2017-Nov-17 11:00N 30°08' W 093°19'0 0.0
2017-Nov-17 10:30N 30°08' W 093°19'0 0.0
2017-Nov-17 10:00N 30°08' W 093°19'0 0.0
2017-Nov-17 09:30N 30°08' W 093°19'0 0.0
2017-Nov-17 09:00N 30°08' W 093°19'0 0.0
2017-Nov-17 08:30N 30°08' W 093°19'0 0.0
2017-Nov-17 08:00N 30°08' W 093°19'0 0.0
2017-Nov-17 07:30N 30°08' W 093°19'0 0.0
2017-Nov-17 07:00N 30°08' W 093°19'0 0.0
2017-Nov-17 06:30N 30°08' W 093°19'0 0.0
2017-Nov-17 06:00N 30°08' W 093°19'0 0.0
2017-Nov-17 05:30N 30°08' W 093°19'0 0.0
2017-Nov-17 05:00N 30°08' W 093°19'0 0.0
2017-Nov-17 04:30N 30°08' W 093°19'0 0.0
2017-Nov-17 04:00N 30°08' W 093°19'0 0.0
2017-Nov-17 03:30N 30°08' W 093°19'0 0.0
2017-Nov-17 03:00N 30°08' W 093°19'0 0.0
2017-Nov-17 02:30N 30°08' W 093°19'0 0.0
2017-Nov-17 02:00N 30°08' W 093°19'0 0.0
2017-Nov-17 01:30N 30°08' W 093°19'0 0.0
2017-Nov-17 01:00N 30°08' W 093°19'0 0.0
2017-Nov-17 00:30N 30°08' W 093°19'0 0.0
2017-Nov-17 00:00N 30°08' W 093°19'0 0.0
2017-Nov-16 23:30N 30°08' W 093°19'0 0.1
2017-Nov-16 23:00N 30°08' W 093°19'0 0.4
2017-Nov-16 22:30N 30°08' W 093°19'2 4.0
2017-Nov-16 22:00N 30°06' W 093°20'2 4.3
2017-Nov-16 21:30N 30°04' W 093°21'0 0.2
2017-Nov-16 21:00N 30°04' W 093°21'0 0.0
2017-Nov-16 20:30N 30°04' W 093°21'0 0.0
2017-Nov-16 20:00N 30°04' W 093°21'0 0.0
2017-Nov-16 19:30N 30°04' W 093°21'0 0.0
2017-Nov-16 19:00N 30°04' W 093°21'0 0.0
2017-Nov-16 18:30N 30°04' W 093°21'0 0.0
2017-Nov-16 18:00N 30°04' W 093°21'0 0.0
2017-Nov-16 17:30N 30°04' W 093°21'0 0.0
2017-Nov-16 17:00N 30°04' W 093°21'0 0.0
2017-Nov-16 16:30N 30°04' W 093°21'0 0.0
2017-Nov-16 16:00N 30°04' W 093°21'0 0.0
2017-Nov-16 15:30N 30°04' W 093°21'0 0.0
2017-Nov-16 15:00N 30°04' W 093°21'0 0.0
2017-Nov-16 14:30N 30°04' W 093°21'0 0.0
2017-Nov-16 14:00N 30°04' W 093°21'0 0.0
2017-Nov-16 13:30N 30°04' W 093°21'0 0.0
2017-Nov-16 13:00N 30°04' W 093°21'0 0.0
2017-Nov-16 12:30N 30°04' W 093°21'0 0.0
2017-Nov-16 12:00N 30°04' W 093°21'0 0.0
2017-Nov-16 11:30N 30°04' W 093°21'0 0.0
2017-Nov-16 11:00N 30°04' W 093°21'0 0.0
2017-Nov-16 10:30N 30°04' W 093°21'0 0.0
2017-Nov-16 10:00N 30°04' W 093°21'0 0.0
2017-Nov-16 09:30N 30°04' W 093°21'0 0.0
2017-Nov-16 09:00N 30°04' W 093°21'0 0.0
2017-Nov-16 08:30N 30°04' W 093°21'0 0.0
2017-Nov-16 08:00N 30°04' W 093°21'0 0.0
2017-Nov-16 07:30N 30°04' W 093°21'0 0.0
2017-Nov-16 07:00N 30°04' W 093°21'0 0.0
2017-Nov-16 06:30N 30°04' W 093°21'0 0.0
2017-Nov-16 06:00N 30°04' W 093°21'0 0.0
2017-Nov-16 05:30N 30°04' W 093°21'0 0.0
2017-Nov-16 05:00N 30°04' W 093°21'0 0.0
2017-Nov-16 04:30N 30°04' W 093°21'0 0.0
2017-Nov-16 04:00N 30°04' W 093°21'0 0.0
2017-Nov-16 03:30N 30°04' W 093°21'0 0.0
2017-Nov-16 03:00N 30°04' W 093°21'0 0.0
2017-Nov-16 02:30N 30°04' W 093°21'0 0.0
2017-Nov-16 02:00N 30°04' W 093°21'0 0.0
2017-Nov-16 01:30N 30°04' W 093°21'0 0.0
2017-Nov-16 01:00N 30°04' W 093°21'0 0.0
2017-Nov-16 00:30N 30°04' W 093°21'0 0.0
2017-Nov-16 00:00N 30°04' W 093°21'0 0.0
2017-Nov-15 23:30N 30°04' W 093°21'0 0.0
2017-Nov-15 23:00N 30°04' W 093°21'0 0.0
2017-Nov-15 22:30N 30°04' W 093°21'0 0.0
2017-Nov-15 22:00N 30°04' W 093°21'0 0.0
2017-Nov-15 21:30N 30°04' W 093°21'0 0.0
2017-Nov-15 21:00N 30°04' W 093°21'0 0.0
2017-Nov-15 20:30N 30°04' W 093°21'0 0.0
2017-Nov-15 20:00N 30°04' W 093°21'0 0.0
2017-Nov-15 19:30N 30°04' W 093°21'0 0.0
2017-Nov-15 19:00N 30°04' W 093°21'0 0.0
2017-Nov-15 18:30N 30°04' W 093°21'0 0.0
2017-Nov-15 18:00N 30°04' W 093°21'0 0.0
2017-Nov-15 17:30N 30°04' W 093°21'7051972.6
2017-Nov-15 17:09N 32°46' W 079°57'7054935.2
2017-Nov-15 17:00N 30°04' W 093°21'705101467.8
2017-Nov-15 17:00N 32°46' W 079°57'1 3.0
2017-Nov-15 16:31N 32°46' W 079°55'706423488.6
2017-Nov-15 16:30N 30°04' W 093°21'7091421.6
2017-Nov-15 16:00N 32°46' W 079°52'709182268.0
2017-Nov-15 16:00N 30°04' W 093°21'0 0.0
2017-Nov-15 15:30N 30°04' W 093°21'0 0.0
2017-Nov-15 15:00N 30°04' W 093°21'0 0.0
2017-Nov-15 14:30N 30°04' W 093°21'0 0.0
2017-Nov-15 14:00N 30°04' W 093°21'0 0.0
2017-Nov-15 13:30N 30°04' W 093°21'0 0.0
2017-Nov-15 13:00N 30°04' W 093°21'0 0.0
2017-Nov-15 12:30N 30°04' W 093°21'0 0.0
2017-Nov-15 12:00N 30°04' W 093°21'0 0.0
2017-Nov-15 11:30N 30°04' W 093°21'0 0.0
2017-Nov-15 11:00N 30°04' W 093°21'0 0.0
2017-Nov-15 10:30N 30°04' W 093°21'0 0.0
2017-Nov-15 10:00N 30°04' W 093°21'0 0.0
2017-Nov-15 09:30N 30°04' W 093°21'0 0.0
2017-Nov-15 09:00N 30°04' W 093°21'0 0.0
2017-Nov-15 08:30N 30°04' W 093°21'0 0.0
2017-Nov-15 08:00N 30°04' W 093°21'0 0.0
2017-Nov-15 07:30N 30°04' W 093°21'0 0.0
2017-Nov-15 07:00N 30°04' W 093°21'0 0.0
2017-Nov-15 06:30N 30°04' W 093°21'0 0.0
2017-Nov-15 06:00N 30°04' W 093°21'0 0.0
2017-Nov-15 05:30N 30°04' W 093°21'0 0.0
2017-Nov-15 05:00N 30°04' W 093°21'1 1.0
2017-Nov-15 04:30N 30°04' W 093°21'1 1.6
2017-Nov-15 04:00N 30°04' W 093°20'0 0.6
2017-Nov-15 03:30N 30°04' W 093°21'0 0.0
2017-Nov-15 03:00N 30°04' W 093°21'0 0.0
2017-Nov-15 02:30N 30°04' W 093°21'0 0.0
2017-Nov-15 02:00N 30°04' W 093°21'0 0.0
2017-Nov-15 01:30N 30°04' W 093°21'0 0.0
2017-Nov-15 01:00N 30°04' W 093°21'0 0.0
2017-Nov-15 00:30N 30°04' W 093°21'0 0.0
2017-Nov-15 00:00N 30°04' W 093°21'0 0.0
2017-Nov-14 23:30N 30°04' W 093°21'0 0.0
2017-Nov-14 23:00N 30°04' W 093°21'0 0.0
2017-Nov-14 22:30N 30°04' W 093°21'7155200.3
2017-Nov-14 22:22N 32°50' W 079°45'7151971.0
2017-Nov-14 22:00N 30°04' W 093°21'71558533.7
2017-Nov-14 22:00N 32°50' W 079°45'7151466.7
2017-Nov-14 21:30N 30°04' W 093°21'0 0.0
2017-Nov-14 21:00N 30°04' W 093°21'0 0.0
2017-Nov-14 20:30N 30°04' W 093°21'0 0.0
2017-Nov-14 20:00N 30°04' W 093°21'0 0.0
2017-Nov-14 19:30N 30°04' W 093°21'0 0.0
2017-Nov-14 19:00N 30°04' W 093°21'0 0.0
2017-Nov-14 18:30N 30°04' W 093°21'0 0.0
2017-Nov-14 18:00N 30°04' W 093°21'0 0.0
2017-Nov-14 17:30N 30°04' W 093°21'1 2.0
2017-Nov-14 17:00N 30°05' W 093°20'0 0.0
2017-Nov-14 16:30N 30°05' W 093°20'0 0.0
2017-Nov-14 16:00N 30°05' W 093°20'0 0.0
2017-Nov-14 15:30N 30°05' W 093°20'0 0.0
2017-Nov-14 15:00N 30°05' W 093°20'0 0.0
2017-Nov-14 14:30N 30°05' W 093°20'0 0.3
2017-Nov-14 13:59N 30°05' W 093°20'1 2.1
2017-Nov-14 13:30N 30°04' W 093°21'1 2.4
2017-Nov-14 13:00N 30°04' W 093°22'3 5.1
2017-Nov-14 12:30N 30°04' W 093°25'97 2.8
2017-Nov-13 02:00N 29°43' W 095°14'0 0.0
2017-Nov-13 01:26N 29°43' W 095°14'0 0.0
2017-Nov-13 00:48N 29°43' W 095°14'0 0.0
2017-Nov-13 00:29N 29°43' W 095°14'0 0.0
2017-Nov-12 23:58N 29°43' W 095°14'0 0.0
2017-Nov-12 23:27N 29°43' W 095°14'0 0.0
2017-Nov-12 22:42N 29°43' W 095°14'0 0.0
2017-Nov-12 22:20N 29°43' W 095°14'0 0.0
2017-Nov-12 21:57N 29°43' W 095°14'0 0.0
2017-Nov-12 21:28N 29°43' W 095°14'0 0.0
2017-Nov-12 20:36N 29°43' W 095°14'0 0.0
2017-Nov-12 20:26N 29°43' W 095°14'0 0.0
2017-Nov-12 19:48N 29°43' W 095°14'0 0.0
2017-Nov-12 19:24N 29°43' W 095°14'0 0.0
2017-Nov-12 18:38N 29°43' W 095°14'0 0.0
2017-Nov-12 18:30N 29°43' W 095°14'0 0.1
2017-Nov-12 18:00N 29°43' W 095°14'0 0.0
2017-Nov-12 17:28N 29°43' W 095°14'0 0.0
2017-Nov-12 17:00N 29°43' W 095°14'0 0.0
2017-Nov-12 16:24N 29°43' W 095°14'0 0.0
2017-Nov-12 15:59N 29°43' W 095°14'0 0.0
2017-Nov-12 15:29N 29°43' W 095°14'2 3.2
2017-Nov-12 15:00N 29°44' W 095°13'2 4.4
2017-Nov-12 14:30N 29°45' W 095°10'2 3.9
2017-Nov-12 14:00N 29°44' W 095°08'0 0.0
2017-Nov-12 13:30N 29°44' W 095°08'0 0.9
2017-Nov-12 12:59N 29°44' W 095°08'2 3.2
2017-Nov-12 12:30N 29°45' W 095°06'2 3.1
2017-Nov-12 11:59N 29°46' W 095°05'2 4.6
2017-Nov-12 11:30N 29°44' W 095°03'2 3.5
2017-Nov-12 11:00N 29°43' W 095°01'2 4.7
2017-Nov-12 10:30N 29°41' W 094°59'3 5.1
2017-Nov-12 10:00N 29°39' W 094°58'2 4.5
2017-Nov-12 09:31N 29°37' W 094°58'3 5.3
2017-Nov-12 09:00N 29°37' W 095°01'0 0.9
2017-Nov-12 08:31N 29°37' W 095°01'0 0.1
2017-Nov-12 08:01N 29°37' W 095°01'0 0.2
2017-Nov-12 07:30N 29°37' W 095°01'0 0.2
2017-Nov-12 07:01N 29°37' W 095°01'0 0.0
2017-Nov-12 06:30N 29°37' W 095°01'0 0.0
2017-Nov-12 06:00N 29°37' W 095°01'0 0.0
2017-Nov-12 05:31N 29°37' W 095°01'0 0.0
2017-Nov-12 05:00N 29°37' W 095°01'0 0.0
2017-Nov-12 04:31N 29°37' W 095°01'0 0.0
2017-Nov-12 04:00N 29°37' W 095°01'0 0.0
2017-Nov-12 03:31N 29°37' W 095°01'0 0.0
2017-Nov-12 03:01N 29°37' W 095°01'0 0.0
2017-Nov-12 02:30N 29°37' W 095°01'0 0.0
2017-Nov-12 02:01N 29°37' W 095°01'0 0.0
2017-Nov-12 01:30N 29°37' W 095°01'0 0.0
2017-Nov-12 01:00N 29°37' W 095°01'0 0.0
2017-Nov-12 00:30N 29°37' W 095°01'0 0.0
2017-Nov-12 00:01N 29°37' W 095°01'0 0.0
2017-Nov-11 23:30N 29°37' W 095°01'0 0.0
2017-Nov-11 23:00N 29°37' W 095°01'0 0.0
2017-Nov-11 22:31N 29°37' W 095°01'0 0.0
2017-Nov-11 22:00N 29°37' W 095°01'0 0.0
2017-Nov-11 21:31N 29°37' W 095°01'0 0.1
2017-Nov-11 21:00N 29°37' W 095°01'0 0.2
2017-Nov-11 20:31N 29°37' W 095°01'0 0.3
2017-Nov-11 20:01N 29°37' W 095°01'0 0.0
2017-Nov-11 19:30N 29°37' W 095°01'0 0.0
2017-Nov-11 19:01N 29°37' W 095°01'0 0.0
2017-Nov-11 18:30N 29°37' W 095°01'0 0.0
2017-Nov-11 18:00N 29°37' W 095°01'0 0.0
2017-Nov-11 17:30N 29°37' W 095°01'0 0.0
2017-Nov-11 17:00N 29°37' W 095°01'0 0.0
2017-Nov-11 16:30N 29°37' W 095°01'0 0.0
2017-Nov-11 16:01N 29°37' W 095°01'0 0.0
2017-Nov-11 15:31N 29°37' W 095°01'0 0.0
2017-Nov-11 15:01N 29°37' W 095°01'0 0.0
2017-Nov-11 14:31N 29°37' W 095°01'0 0.0
2017-Nov-11 14:00N 29°37' W 095°01'9754441.3
2017-Nov-11 13:47N 34°43' W 076°49'9753547.6
2017-Nov-11 13:31N 29°37' W 095°01'9763514421.8
2017-Nov-11 13:31N 34°43' W 076°47'9761932.1
2017-Nov-11 13:00N 29°37' W 095°01'979320340.3
2017-Nov-11 13:00N 34°43' W 076°43'9791990.8
2017-Nov-11 12:31N 29°37' W 095°01'0 0.0
2017-Nov-11 12:00N 29°37' W 095°01'0 0.0
2017-Nov-11 11:30N 29°37' W 095°01'0 0.0
2017-Nov-11 11:00N 29°37' W 095°01'0 0.0
2017-Nov-11 10:31N 29°37' W 095°01'0 0.0
2017-Nov-11 10:00N 29°37' W 095°01'0 0.0
2017-Nov-11 09:30N 29°37' W 095°01'0 0.0
2017-Nov-11 09:01N 29°37' W 095°01'0 0.0
2017-Nov-11 08:31N 29°37' W 095°01'0 0.0
2017-Nov-11 08:00N 29°37' W 095°01'0 0.0
2017-Nov-11 07:30N 29°37' W 095°01'0 0.0
2017-Nov-11 07:00N 29°37' W 095°01'0 0.0
2017-Nov-11 06:30N 29°37' W 095°01'0 0.0
2017-Nov-11 06:00N 29°37' W 095°01'0 0.0
2017-Nov-11 05:30N 29°37' W 095°01'0 0.0
2017-Nov-11 05:00N 29°37' W 095°01'0 0.0
2017-Nov-11 04:30N 29°37' W 095°01'0 0.0
2017-Nov-11 04:00N 29°37' W 095°01'0 0.0
2017-Nov-11 03:30N 29°37' W 095°01'0 0.3
2017-Nov-11 03:00N 29°37' W 095°01'0 0.1
2017-Nov-11 02:30N 29°37' W 095°01'3 5.9
2017-Nov-11 02:00N 29°37' W 094°58'3 6.4
2017-Nov-11 01:30N 29°35' W 094°56'3 6.7
2017-Nov-11 01:00N 29°32' W 094°53'977193.3
2017-Nov-10 19:57N 34°48' W 076°41'0 0.0
2017-Nov-10 19:30N 34°48' W 076°41'0 0.1
2017-Nov-10 18:59N 34°48' W 076°41'2 3.7
2017-Nov-10 18:30N 34°50' W 076°41'  

Dump ship's entire track history